sensor_id;sensor_type;location;lat;lon;timestamp;pressure;altitude;pressure_sealevel;temperature;humidity
48848;BME280;36611;51.638;5.784;2022-12-18T00:01:19;102748.97;;;0.42;56.22
48848;BME280;36611;51.638;5.784;2022-12-18T00:03:46;102733.13;;;0.39;56.21
48848;BME280;36611;51.638;5.784;2022-12-18T00:06:13;102742.81;;;0.37;56.12
48848;BME280;36611;51.638;5.784;2022-12-18T00:08:41;102741.03;;;0.36;56.30
48848;BME280;36611;51.638;5.784;2022-12-18T00:11:15;102738.41;;;0.35;56.07
48848;BME280;36611;51.638;5.784;2022-12-18T00:13:42;102732.22;;;0.31;55.99
48848;BME280;36611;51.638;5.784;2022-12-18T00:16:14;102735.75;;;0.25;56.08
48848;BME280;36611;51.638;5.784;2022-12-18T00:18:42;102735.72;;;0.18;55.81
48848;BME280;36611;51.638;5.784;2022-12-18T00:21:10;102731.31;;;0.08;55.79
48848;BME280;36611;51.638;5.784;2022-12-18T00:23:37;102735.69;;;0.01;55.90
48848;BME280;36611;51.638;5.784;2022-12-18T00:26:08;102746.19;;;-0.07;55.81
48848;BME280;36611;51.638;5.784;2022-12-18T00:28:36;102740.03;;;-0.12;55.98
48848;BME280;36611;51.638;5.784;2022-12-18T00:31:04;102742.66;;;-0.15;55.93
48848;BME280;36611;51.638;5.784;2022-12-18T00:33:32;102736.50;;;-0.17;55.97
48848;BME280;36611;51.638;5.784;2022-12-18T00:36:03;102731.19;;;-0.18;55.81
48848;BME280;36611;51.638;5.784;2022-12-18T00:38:31;102720.63;;;-0.18;55.98
48848;BME280;36611;51.638;5.784;2022-12-18T00:40:58;102724.16;;;-0.18;56.07
48848;BME280;36611;51.638;5.784;2022-12-18T00:43:24;102729.44;;;-0.18;56.02
48848;BME280;36611;51.638;5.784;2022-12-18T00:45:51;102733.84;;;-0.17;55.97
48848;BME280;36611;51.638;5.784;2022-12-18T00:48:18;102732.09;;;-0.15;55.77
48848;BME280;36611;51.638;5.784;2022-12-18T00:50:45;102729.47;;;-0.13;55.95
48848;BME280;36611;51.638;5.784;2022-12-18T00:53:13;102718.00;;;-0.14;55.66
48848;BME280;36611;51.638;5.784;2022-12-18T00:55:40;102715.38;;;-0.12;55.63
48848;BME280;36611;51.638;5.784;2022-12-18T00:58:08;102716.25;;;-0.13;55.66
48848;BME280;36611;51.638;5.784;2022-12-18T01:00:35;102730.31;;;-0.16;55.78
48848;BME280;36611;51.638;5.784;2022-12-18T01:03:02;102724.16;;;-0.16;55.73
48848;BME280;36611;51.638;5.784;2022-12-18T01:05:29;102718.88;;;-0.18;55.54
48848;BME280;36611;51.638;5.784;2022-12-18T01:07:56;102708.31;;;-0.19;55.50
48848;BME280;36611;51.638;5.784;2022-12-18T01:10:23;102725.03;;;-0.19;55.62
48848;BME280;36611;51.638;5.784;2022-12-18T01:12:50;102729.44;;;-0.21;55.52
48848;BME280;36611;51.638;5.784;2022-12-18T01:15:17;102725.03;;;-0.22;55.58
48848;BME280;36611;51.638;5.784;2022-12-18T01:17:44;102728.53;;;-0.26;55.63
48848;BME280;36611;51.638;5.784;2022-12-18T01:20:12;102730.28;;;-0.31;55.47
48848;BME280;36611;51.638;5.784;2022-12-18T01:22:39;102735.53;;;-0.37;55.50
48848;BME280;36611;51.638;5.784;2022-12-18T01:25:06;102743.44;;;-0.40;55.43
48848;BME280;36611;51.638;5.784;2022-12-18T01:27:33;102746.94;;;-0.43;55.40
48848;BME280;36611;51.638;5.784;2022-12-18T01:30:03;102746.94;;;-0.43;55.34
48848;BME280;36611;51.638;5.784;2022-12-18T01:32:31;102739.03;;;-0.43;55.39
48848;BME280;36611;51.638;5.784;2022-12-18T01:34:57;102742.53;;;-0.42;55.48
48848;BME280;36611;51.638;5.784;2022-12-18T01:37:26;102726.72;;;-0.42;55.41
48848;BME280;36611;51.638;5.784;2022-12-18T01:39:53;102719.66;;;-0.43;55.44
48848;BME280;36611;51.638;5.784;2022-12-18T01:42:21;102724.94;;;-0.45;55.29
48848;BME280;36611;51.638;5.784;2022-12-18T01:47:32;102726.69;;;-0.50;55.36
48848;BME280;36611;51.638;5.784;2022-12-18T01:50:19;102731.06;;;-0.52;55.22
48848;BME280;36611;51.638;5.784;2022-12-18T01:52:49;102725.78;;;-0.55;55.23
48848;BME280;36611;51.638;5.784;2022-12-18T01:55:18;102732.81;;;-0.55;55.38
48848;BME280;36611;51.638;5.784;2022-12-18T01:57:46;102738.97;;;-0.56;55.23
48848;BME280;36611;51.638;5.784;2022-12-18T02:00:16;102724.00;;;-0.57;55.34
48848;BME280;36611;51.638;5.784;2022-12-18T02:02:44;102723.13;;;-0.58;55.11
48848;BME280;36611;51.638;5.784;2022-12-18T02:05:27;102721.34;;;-0.62;55.20
48848;BME280;36611;51.638;5.784;2022-12-18T02:08:10;102723.97;;;-0.65;55.15
48848;BME280;36611;51.638;5.784;2022-12-18T02:16:39;102726.56;;;-0.74;55.26
48848;BME280;36611;51.638;5.784;2022-12-18T02:19:08;102728.28;;;-0.76;55.03
48848;BME280;36611;51.638;5.784;2022-12-18T02:27:18;102709.78;;;-0.82;55.15
48848;BME280;36611;51.638;5.784;2022-12-18T02:29:53;102717.69;;;-0.84;55.16
48848;BME280;36611;51.638;5.784;2022-12-18T02:32:30;102723.81;;;-0.85;55.18
48848;BME280;36611;51.638;5.784;2022-12-18T02:34:59;102723.81;;;-0.88;55.16
48848;BME280;36611;51.638;5.784;2022-12-18T02:37:30;102722.91;;;-0.93;55.16
48848;BME280;36611;51.638;5.784;2022-12-18T02:40:02;102729.91;;;-0.95;55.06
48848;BME280;36611;51.638;5.784;2022-12-18T02:42:32;102728.16;;;-0.96;55.15
48848;BME280;36611;51.638;5.784;2022-12-18T02:44:59;102721.97;;;-1.00;54.96
48848;BME280;36611;51.638;5.784;2022-12-18T02:47:33;102714.03;;;-1.03;54.91
48848;BME280;36611;51.638;5.784;2022-12-18T02:50:18;102710.50;;;-1.06;55.06
48848;BME280;36611;51.638;5.784;2022-12-18T02:53:06;102708.72;;;-1.10;54.88
48848;BME280;36611;51.638;5.784;2022-12-18T02:56:25;102713.09;;;-1.15;54.86
48848;BME280;36611;51.638;5.784;2022-12-18T03:04:17;102694.56;;;-1.24;55.03
48848;BME280;36611;51.638;5.784;2022-12-18T03:06:50;102693.66;;;-1.26;55.12
48848;BME280;36611;51.638;5.784;2022-12-18T03:09:25;102689.28;;;-1.27;55.00
48848;BME280;36611;51.638;5.784;2022-12-18T03:12:00;102688.38;;;-1.28;54.93
48848;BME280;36611;51.638;5.784;2022-12-18T03:14:56;102688.38;;;-1.30;54.92
48848;BME280;36611;51.638;5.784;2022-12-18T03:17:28;102698.03;;;-1.32;54.97
48848;BME280;36611;51.638;5.784;2022-12-18T03:19:59;102702.41;;;-1.32;54.74
48848;BME280;36611;51.638;5.784;2022-12-18T03:22:32;102704.16;;;-1.33;55.06
48848;BME280;36611;51.638;5.784;2022-12-18T03:25:02;102695.34;;;-1.39;54.94
48848;BME280;36611;51.638;5.784;2022-12-18T03:27:31;102704.97;;;-1.43;54.81
48848;BME280;36611;51.638;5.784;2022-12-18T03:30:08;102706.72;;;-1.45;54.96
48848;BME280;36611;51.638;5.784;2022-12-18T03:35:13;102704.94;;;-1.46;54.99
48848;BME280;36611;51.638;5.784;2022-12-18T03:37:41;102699.66;;;-1.47;54.93
48848;BME280;36611;51.638;5.784;2022-12-18T03:40:08;102691.75;;;-1.47;54.87
48848;BME280;36611;51.638;5.784;2022-12-18T03:42:46;102693.50;;;-1.48;55.03
48848;BME280;36611;51.638;5.784;2022-12-18T03:45:23;102684.72;;;-1.47;55.02
48848;BME280;36611;51.638;5.784;2022-12-18T03:50:41;102675.97;;;-1.44;55.00
48848;BME280;36611;51.638;5.784;2022-12-18T03:53:18;102669.84;;;-1.42;55.03
48848;BME280;36611;51.638;5.784;2022-12-18T03:55:50;102657.56;;;-1.40;55.02
48848;BME280;36611;51.638;5.784;2022-12-18T03:58:22;102658.44;;;-1.39;54.95
48848;BME280;36611;51.638;5.784;2022-12-18T04:01:12;102652.28;;;-1.38;54.90
48848;BME280;36611;51.638;5.784;2022-12-18T04:03:41;102652.28;;;-1.40;54.83
48848;BME280;36611;51.638;5.784;2022-12-18T04:06:11;102653.16;;;-1.42;54.87
48848;BME280;36611;51.638;5.784;2022-12-18T04:08:40;102652.25;;;-1.44;55.03
48848;BME280;36611;51.638;5.784;2022-12-18T04:11:10;102643.47;;;-1.45;54.97
48848;BME280;36611;51.638;5.784;2022-12-18T04:13:38;102645.22;;;-1.45;55.04
48848;BME280;36611;51.638;5.784;2022-12-18T04:16:10;102639.06;;;-1.46;55.02
48848;BME280;36611;51.638;5.784;2022-12-18T04:18:40;102646.97;;;-1.46;55.15
48848;BME280;36611;51.638;5.784;2022-12-18T04:21:07;102641.72;;;-1.44;55.27
48848;BME280;36611;51.638;5.784;2022-12-18T04:23:35;102646.09;;;-1.45;55.14
48848;BME280;36611;51.638;5.784;2022-12-18T04:26:02;102639.94;;;-1.48;55.13
48848;BME280;36611;51.638;5.784;2022-12-18T04:28:44;102631.97;;;-1.50;55.10
48848;BME280;36611;51.638;5.784;2022-12-18T04:31:12;102623.19;;;-1.50;55.16
48848;BME280;36611;51.638;5.784;2022-12-18T04:33:38;102626.72;;;-1.50;55.22
48848;BME280;36611;51.638;5.784;2022-12-18T04:36:07;102629.41;;;-1.47;55.28
48848;BME280;36611;51.638;5.784;2022-12-18T04:38:33;102628.53;;;-1.46;55.35
48848;BME280;36611;51.638;5.784;2022-12-18T04:41:07;102617.13;;;-1.45;55.15
48848;BME280;36611;51.638;5.784;2022-12-18T04:43:35;102624.16;;;-1.44;55.12
48848;BME280;36611;51.638;5.784;2022-12-18T04:46:06;102628.56;;;-1.43;55.33
48848;BME280;36611;51.638;5.784;2022-12-18T04:48:35;102633.81;;;-1.43;55.36
48848;BME280;36611;51.638;5.784;2022-12-18T04:51:02;102622.41;;;-1.42;55.49
48848;BME280;36611;51.638;5.784;2022-12-18T04:53:28;102637.34;;;-1.41;55.45
48848;BME280;36611;51.638;5.784;2022-12-18T04:56:05;102637.34;;;-1.41;55.34
48848;BME280;36611;51.638;5.784;2022-12-18T04:58:33;102641.75;;;-1.40;55.48
48848;BME280;36611;51.638;5.784;2022-12-18T05:00:59;102651.44;;;-1.37;55.37
48848;BME280;36611;51.638;5.784;2022-12-18T05:03:26;102653.19;;;-1.35;55.24
48848;BME280;36611;51.638;5.784;2022-12-18T05:05:53;102646.19;;;-1.31;55.30
48848;BME280;36611;51.638;5.784;2022-12-18T05:08:19;102657.63;;;-1.29;55.25
48848;BME280;36611;51.638;5.784;2022-12-18T05:10:46;102655.00;;;-1.29;55.36
48848;BME280;36611;51.638;5.784;2022-12-18T05:13:12;102666.41;;;-1.29;55.35
48848;BME280;36611;51.638;5.784;2022-12-18T05:15:39;102676.09;;;-1.29;55.46
48848;BME280;36611;51.638;5.784;2022-12-18T05:18:06;102676.97;;;-1.29;55.23
48848;BME280;36611;51.638;5.784;2022-12-18T05:20:33;102691.03;;;-1.28;55.36
48848;BME280;36611;51.638;5.784;2022-12-18T05:22:59;102691.94;;;-1.24;55.40
48848;BME280;36611;51.638;5.784;2022-12-18T05:25:26;102689.31;;;-1.21;55.38
48848;BME280;36611;51.638;5.784;2022-12-18T05:27:52;102691.09;;;-1.17;55.33
48848;BME280;36611;51.638;5.784;2022-12-18T05:30:19;102687.59;;;-1.15;55.42
48848;BME280;36611;51.638;5.784;2022-12-18T05:32:46;102690.25;;;-1.12;55.41
48848;BME280;36611;51.638;5.784;2022-12-18T05:35:12;102689.41;;;-1.09;55.14
48848;BME280;36611;51.638;5.784;2022-12-18T05:37:39;102674.47;;;-1.09;55.40
48848;BME280;36611;51.638;5.784;2022-12-18T05:40:09;102677.97;;;-1.08;55.29
48848;BME280;36611;51.638;5.784;2022-12-18T05:42:36;102682.38;;;-1.09;55.31
48848;BME280;36611;51.638;5.784;2022-12-18T05:45:03;102677.97;;;-1.10;55.16
48848;BME280;36611;51.638;5.784;2022-12-18T05:47:30;102671.81;;;-1.10;55.18
48848;BME280;36611;51.638;5.784;2022-12-18T05:49:57;102666.53;;;-1.10;55.24
48848;BME280;36611;51.638;5.784;2022-12-18T05:52:23;102663.91;;;-1.10;55.01
48848;BME280;36611;51.638;5.784;2022-12-18T05:54:50;102656.00;;;-1.10;55.16
48848;BME280;36611;51.638;5.784;2022-12-18T05:57:16;102655.97;;;-1.12;55.32
48848;BME280;36611;51.638;5.784;2022-12-18T05:59:43;102649.81;;;-1.14;55.03
48848;BME280;36611;51.638;5.784;2022-12-18T06:02:09;102655.09;;;-1.15;55.15
48848;BME280;36611;51.638;5.784;2022-12-18T06:04:36;102642.78;;;-1.15;55.09
48848;BME280;36611;51.638;5.784;2022-12-18T06:07:03;102652.44;;;-1.15;54.98
48848;BME280;36611;51.638;5.784;2022-12-18T06:09:29;102645.41;;;-1.16;55.22
48848;BME280;36611;51.638;5.784;2022-12-18T06:11:56;102638.38;;;-1.17;55.04
48848;BME280;36611;51.638;5.784;2022-12-18T06:14:22;102626.94;;;-1.18;55.00
48848;BME280;36611;51.638;5.784;2022-12-18T06:16:50;102617.28;;;-1.17;55.21
48848;BME280;36611;51.638;5.784;2022-12-18T06:19:18;102616.41;;;-1.16;55.20
48848;BME280;36611;51.638;5.784;2022-12-18T06:21:44;102619.91;;;-1.17;55.15
48848;BME280;36611;51.638;5.784;2022-12-18T06:24:11;102625.19;;;-1.17;55.12
48848;BME280;36611;51.638;5.784;2022-12-18T06:26:38;102622.56;;;-1.16;55.08
48848;BME280;36611;51.638;5.784;2022-12-18T06:29:05;102626.97;;;-1.12;55.23
48848;BME280;36611;51.638;5.784;2022-12-18T06:31:32;102632.25;;;-1.10;55.14
48848;BME280;36611;51.638;5.784;2022-12-18T06:34:02;102618.22;;;-1.09;54.92
48848;BME280;36611;51.638;5.784;2022-12-18T06:36:29;102622.59;;;-1.08;55.16
48848;BME280;36611;51.638;5.784;2022-12-18T06:38:56;102613.81;;;-1.10;55.24
48848;BME280;36611;51.638;5.784;2022-12-18T06:41:23;102610.28;;;-1.11;55.14
48848;BME280;36611;51.638;5.784;2022-12-18T06:43:50;102609.41;;;-1.11;55.26
48848;BME280;36611;51.638;5.784;2022-12-18T06:46:23;102610.28;;;-1.09;55.24
48848;BME280;36611;51.638;5.784;2022-12-18T06:48:50;102612.94;;;-1.08;55.22
48848;BME280;36611;51.638;5.784;2022-12-18T06:51:21;102597.13;;;-1.06;55.67
48848;BME280;36611;51.638;5.784;2022-12-18T06:53:48;102598.88;;;-1.07;55.22
48848;BME280;36611;51.638;5.784;2022-12-18T06:56:14;102599.75;;;-1.06;55.20
48848;BME280;36611;51.638;5.784;2022-12-18T06:58:41;102610.31;;;-1.06;55.32
48848;BME280;36611;51.638;5.784;2022-12-18T07:01:10;102617.34;;;-1.05;55.45
48848;BME280;36611;51.638;5.784;2022-12-18T07:03:38;102610.31;;;-1.03;55.29
48848;BME280;36611;51.638;5.784;2022-12-18T07:06:06;102612.09;;;-1.02;55.47
48848;BME280;36611;51.638;5.784;2022-12-18T07:08:33;102603.31;;;-1.01;55.36
48848;BME280;36611;51.638;5.784;2022-12-18T07:11:02;102598.03;;;-1.01;55.64
48848;BME280;36611;51.638;5.784;2022-12-18T07:13:29;102584.84;;;-1.01;55.50
48848;BME280;36611;51.638;5.784;2022-12-18T07:16:03;102596.28;;;-1.02;55.32
48848;BME280;36611;51.638;5.784;2022-12-18T07:18:34;102595.38;;;-1.03;55.40
48848;BME280;36611;51.638;5.784;2022-12-18T07:21:08;102583.97;;;-1.02;55.46
48848;BME280;36611;51.638;5.784;2022-12-18T07:23:35;102591.00;;;-1.01;55.43
48848;BME280;36611;51.638;5.784;2022-12-18T07:26:04;102581.34;;;-1.00;55.61
48848;BME280;36611;51.638;5.784;2022-12-18T07:28:32;102583.97;;;-1.00;55.45
48848;BME280;36611;51.638;5.784;2022-12-18T07:31:03;102582.22;;;-1.00;55.38
48848;BME280;36611;51.638;5.784;2022-12-18T07:33:33;102580.47;;;-0.99;55.59
48848;BME280;36611;51.638;5.784;2022-12-18T07:36:00;102587.50;;;-0.97;55.53
48848;BME280;36611;51.638;5.784;2022-12-18T07:38:28;102580.47;;;-0.93;55.44
48848;BME280;36611;51.638;5.784;2022-12-18T07:43:31;102569.06;;;-0.89;55.36
48848;BME280;36611;51.638;5.784;2022-12-18T07:46:01;102574.34;;;-0.87;55.37
48848;BME280;36611;51.638;5.784;2022-12-18T07:48:29;102571.72;;;-0.86;55.30
48848;BME280;36611;51.638;5.784;2022-12-18T07:51:00;102564.69;;;-0.87;55.58
48848;BME280;36611;51.638;5.784;2022-12-18T07:53:27;102547.97;;;-0.89;55.31
48848;BME280;36611;51.638;5.784;2022-12-18T07:56:02;102547.97;;;-0.90;55.40
48848;BME280;36611;51.638;5.784;2022-12-18T07:58:49;102555.88;;;-0.90;55.38
48848;BME280;36611;51.638;5.784;2022-12-18T08:01:15;102547.97;;;-0.90;55.28
48848;BME280;36611;51.638;5.784;2022-12-18T08:03:43;102555.00;;;-0.91;55.51
48848;BME280;36611;51.638;5.784;2022-12-18T08:06:10;102535.66;;;-0.91;55.31
48848;BME280;36611;51.638;5.784;2022-12-18T08:08:37;102534.78;;;-0.87;55.41
48848;BME280;36611;51.638;5.784;2022-12-18T08:11:03;102531.28;;;-0.85;55.58
48848;BME280;36611;51.638;5.784;2022-12-18T08:13:30;102529.53;;;-0.80;55.47
48848;BME280;36611;51.638;5.784;2022-12-18T08:16:02;102530.47;;;-0.70;55.68
48848;BME280;36611;51.638;5.784;2022-12-18T08:18:29;102530.50;;;-0.59;55.75
48848;BME280;36611;51.638;5.784;2022-12-18T08:20:56;102532.28;;;-0.49;55.90
48848;BME280;36611;51.638;5.784;2022-12-18T08:23:22;102528.75;;;-0.38;56.00
48848;BME280;36611;51.638;5.784;2022-12-18T08:25:53;102533.16;;;-0.23;56.05
48848;BME280;36611;51.638;5.784;2022-12-18T08:28:20;102528.78;;;-0.13;56.01
48848;BME280;36611;51.638;5.784;2022-12-18T08:30:51;102527.88;;;-0.02;55.99
48848;BME280;36611;51.638;5.784;2022-12-18T08:33:18;102533.19;;;0.09;55.97
48848;BME280;36611;51.638;5.784;2022-12-18T08:35:45;102536.69;;;0.19;56.04
48848;BME280;36611;51.638;5.784;2022-12-18T08:38:11;102529.63;;;0.27;56.04
48848;BME280;36611;51.638;5.784;2022-12-18T08:40:38;102532.25;;;0.36;56.08
48848;BME280;36611;51.638;5.784;2022-12-18T08:43:04;102524.31;;;0.42;55.93
48848;BME280;36611;51.638;5.784;2022-12-18T08:45:50;102532.22;;;0.50;56.15
48848;BME280;36611;51.638;5.784;2022-12-18T08:48:17;102538.38;;;0.55;56.02
48848;BME280;36611;51.638;5.784;2022-12-18T08:50:58;102544.53;;;0.61;56.05
48848;BME280;36611;51.638;5.784;2022-12-18T08:53:26;102536.59;;;0.66;56.17
48848;BME280;36611;51.638;5.784;2022-12-18T08:56:01;102523.34;;;0.71;56.13
48848;BME280;36611;51.638;5.784;2022-12-18T08:58:27;102518.06;;;0.74;56.03
48848;BME280;36611;51.638;5.784;2022-12-18T09:00:54;102518.06;;;0.77;55.76
48848;BME280;36611;51.638;5.784;2022-12-18T09:03:20;102511.88;;;0.81;55.95
48848;BME280;36611;51.638;5.784;2022-12-18T09:05:48;102513.63;;;0.88;56.07
48848;BME280;36611;51.638;5.784;2022-12-18T09:08:15;102511.81;;;0.96;56.15
48848;BME280;36611;51.638;5.784;2022-12-18T09:10:43;102521.47;;;1.03;56.10
48848;BME280;36611;51.638;5.784;2022-12-18T09:13:10;102515.28;;;1.10;56.06
48848;BME280;36611;51.638;5.784;2022-12-18T09:15:56;102510.84;;;1.14;55.97
48848;BME280;36611;51.638;5.784;2022-12-18T09:18:23;102509.03;;;1.19;55.90
48848;BME280;36611;51.638;5.784;2022-12-18T09:20:50;102504.63;;;1.22;55.86
48848;BME280;36611;51.638;5.784;2022-12-18T09:23:19;102505.47;;;1.26;55.84
48848;BME280;36611;51.638;5.784;2022-12-18T09:25:46;102507.22;;;1.27;55.92
48848;BME280;36611;51.638;5.784;2022-12-18T09:28:14;102518.69;;;1.31;55.96
48848;BME280;36611;51.638;5.784;2022-12-18T09:30:43;102520.44;;;1.33;55.83
48848;BME280;36611;51.638;5.784;2022-12-18T09:33:10;102524.81;;;1.36;55.83
48848;BME280;36611;51.638;5.784;2022-12-18T09:35:38;102524.78;;;1.40;55.97
48848;BME280;36611;51.638;5.784;2022-12-18T09:38:05;102517.72;;;1.44;55.86
48848;BME280;36611;51.638;5.784;2022-12-18T09:40:53;102522.97;;;1.47;55.70
48848;BME280;36611;51.638;5.784;2022-12-18T09:43:25;102523.88;;;1.50;55.61
48848;BME280;36611;51.638;5.784;2022-12-18T09:45:58;102519.44;;;1.54;55.48
48848;BME280;36611;51.638;5.784;2022-12-18T09:48:29;102512.34;;;1.57;55.73
48848;BME280;36611;51.638;5.784;2022-12-18T09:51:01;102514.09;;;1.60;55.70
48848;BME280;36611;51.638;5.784;2022-12-18T09:53:32;102510.53;;;1.63;55.55
48848;BME280;36611;51.638;5.784;2022-12-18T09:56:03;102513.16;;;1.66;55.75
48848;BME280;36611;51.638;5.784;2022-12-18T09:58:31;102511.38;;;1.69;55.64
48848;BME280;36611;51.638;5.784;2022-12-18T10:01:01;102507.81;;;1.73;55.73
48848;BME280;36611;51.638;5.784;2022-12-18T10:03:27;102496.31;;;1.77;55.78
48848;BME280;36611;51.638;5.784;2022-12-18T10:11:32;102472.38;;;1.86;55.74
48848;BME280;36611;51.638;5.784;2022-12-18T10:17:03;102472.28;;;1.96;55.79
48848;BME280;36611;51.638;5.784;2022-12-18T10:19:47;102465.19;;;2.01;55.67
48848;BME280;36611;51.638;5.784;2022-12-18T10:22:43;102466.91;;;2.05;55.83
48848;BME280;36611;51.638;5.784;2022-12-18T10:25:34;102466.88;;;2.08;55.77
48848;BME280;36611;51.638;5.784;2022-12-18T10:28:14;102470.38;;;2.11;55.85
48848;BME280;36611;51.638;5.784;2022-12-18T10:30:42;102473.88;;;2.15;55.83
48848;BME280;36611;51.638;5.784;2022-12-18T10:33:12;102480.88;;;2.20;55.70
48848;BME280;36611;51.638;5.784;2022-12-18T10:35:41;102486.16;;;2.25;55.77
48848;BME280;36611;51.638;5.784;2022-12-18T10:40:59;102460.44;;;2.35;55.71
48848;BME280;36611;51.638;5.784;2022-12-18T10:48:30;102454.13;;;2.45;55.53
48848;BME280;36611;51.638;5.784;2022-12-18T10:50:57;102439.94;;;2.49;55.42
48848;BME280;36611;51.638;5.784;2022-12-18T10:53:40;102427.50;;;2.52;55.51
48848;BME280;36611;51.638;5.784;2022-12-18T10:56:08;102430.97;;;2.59;55.33
48848;BME280;36611;51.638;5.784;2022-12-18T10:58:37;102429.16;;;2.63;55.36
48848;BME280;36611;51.638;5.784;2022-12-18T11:06:28;102405.09;;;2.76;55.39
48848;BME280;36611;51.638;5.784;2022-12-18T11:09:06;102394.44;;;2.79;55.31
48848;BME280;36611;51.638;5.784;2022-12-18T11:11:52;102386.41;;;2.84;55.29
48848;BME280;36611;51.638;5.784;2022-12-18T11:14:26;102385.50;;;2.86;55.11
48848;BME280;36611;51.638;5.784;2022-12-18T11:16:54;102386.31;;;2.90;55.17
48848;BME280;36611;51.638;5.784;2022-12-18T11:19:42;102387.16;;;2.94;55.08
48848;BME280;36611;51.638;5.784;2022-12-18T11:22:28;102387.13;;;2.95;55.03
48848;BME280;36611;51.638;5.784;2022-12-18T11:24:58;102388.88;;;2.98;54.91
48848;BME280;36611;51.638;5.784;2022-12-18T11:27:55;102386.22;;;2.99;54.87
48848;BME280;36611;51.638;5.784;2022-12-18T11:30:33;102373.81;;;3.00;54.64
48848;BME280;36611;51.638;5.784;2022-12-18T11:33:21;102376.44;;;3.01;54.57
48848;BME280;36611;51.638;5.784;2022-12-18T11:36:00;102363.19;;;3.01;54.56
48848;BME280;36611;51.638;5.784;2022-12-18T11:38:32;102364.00;;;3.06;54.66
48848;BME280;36611;51.638;5.784;2022-12-18T11:41:19;102371.03;;;3.09;54.65
48848;BME280;36611;51.638;5.784;2022-12-18T11:43:50;102378.91;;;3.13;54.56
48848;BME280;36611;51.638;5.784;2022-12-18T11:46:52;102386.81;;;3.16;54.65
48848;BME280;36611;51.638;5.784;2022-12-18T11:49:26;102382.31;;;3.22;54.31
48848;BME280;36611;51.638;5.784;2022-12-18T11:51:59;102378.72;;;3.26;54.41
48848;BME280;36611;51.638;5.784;2022-12-18T11:54:28;102376.03;;;3.27;54.25
48848;BME280;36611;51.638;5.784;2022-12-18T11:59:35;102359.19;;;3.30;54.21
48848;BME280;36611;51.638;5.784;2022-12-18T12:07:50;102358.16;;;3.37;54.29
48848;BME280;36611;51.638;5.784;2022-12-18T12:19:11;102333.16;;;3.50;53.97
48848;BME280;36611;51.638;5.784;2022-12-18T12:22:03;102326.03;;;3.52;54.00
48848;BME280;36611;51.638;5.784;2022-12-18T12:27:25;102326.88;;;3.54;53.90
48848;BME280;36611;51.638;5.784;2022-12-18T12:30:10;102318.88;;;3.56;53.72
48848;BME280;36611;51.638;5.784;2022-12-18T12:33:00;102314.38;;;3.59;53.80
48848;BME280;36611;51.638;5.784;2022-12-18T12:38:10;102322.28;;;3.62;53.71
48848;BME280;36611;51.638;5.784;2022-12-18T12:41:06;102313.41;;;3.63;53.66
48848;BME280;36611;51.638;5.784;2022-12-18T12:43:39;102309.81;;;3.67;53.75
48848;BME280;36611;51.638;5.784;2022-12-18T12:46:17;102300.03;;;3.69;53.70
48848;BME280;36611;51.638;5.784;2022-12-18T12:51:21;102292.06;;;3.69;53.55
48848;BME280;36611;51.638;5.784;2022-12-18T12:53:48;102292.91;;;3.71;53.43
48848;BME280;36611;51.638;5.784;2022-12-18T12:56:18;102277.88;;;3.72;53.59
48848;BME280;36611;51.638;5.784;2022-12-18T13:01:41;102271.63;;;3.73;53.36
48848;BME280;36611;51.638;5.784;2022-12-18T13:07:06;102266.25;;;3.76;53.17
48848;BME280;36611;51.638;5.784;2022-12-18T13:15:31;102248.50;;;3.78;53.15
48848;BME280;36611;51.638;5.784;2022-12-18T13:20:39;102241.41;;;3.78;53.03
48848;BME280;36611;51.638;5.784;2022-12-18T13:34:29;102222.84;;;3.77;52.92
48848;BME280;36611;51.638;5.784;2022-12-18T13:39:59;102231.66;;;3.79;52.82
48848;BME280;36611;51.638;5.784;2022-12-18T13:42:37;102225.47;;;3.78;52.83
48848;BME280;36611;51.638;5.784;2022-12-18T13:45:38;102232.53;;;3.79;52.73
48848;BME280;36611;51.638;5.784;2022-12-18T13:48:15;102231.63;;;3.80;52.84
48848;BME280;36611;51.638;5.784;2022-12-18T13:50:42;102236.00;;;3.83;52.84
48848;BME280;36611;51.638;5.784;2022-12-18T13:53:24;102228.00;;;3.85;52.81
48848;BME280;36611;51.638;5.784;2022-12-18T13:55:52;102223.56;;;3.85;52.65
48848;BME280;36611;51.638;5.784;2022-12-18T13:58:19;102222.66;;;3.86;52.71
48848;BME280;36611;51.638;5.784;2022-12-18T14:00:46;102213.78;;;3.87;52.74
48848;BME280;36611;51.638;5.784;2022-12-18T14:03:22;102215.53;;;3.88;52.47
48848;BME280;36611;51.638;5.784;2022-12-18T14:06:07;102214.59;;;3.91;52.64
48848;BME280;36611;51.638;5.784;2022-12-18T14:08:39;102206.53;;;3.94;52.39
48848;BME280;36611;51.638;5.784;2022-12-18T14:11:07;102209.19;;;3.94;52.57
48848;BME280;36611;51.638;5.784;2022-12-18T14:13:45;102203.88;;;3.94;52.65
48848;BME280;36611;51.638;5.784;2022-12-18T14:16:15;102209.19;;;3.94;52.50
48848;BME280;36611;51.638;5.784;2022-12-18T14:18:52;102207.41;;;3.94;52.70
48848;BME280;36611;51.638;5.784;2022-12-18T14:21:28;102207.38;;;3.96;52.65
48848;BME280;36611;51.638;5.784;2022-12-18T14:24:16;102212.69;;;3.96;52.49
48848;BME280;36611;51.638;5.784;2022-12-18T14:26:46;102199.41;;;3.96;52.31
48848;BME280;36611;51.638;5.784;2022-12-18T14:29:27;102193.22;;;3.95;52.43
48848;BME280;36611;51.638;5.784;2022-12-18T14:32:17;102187.91;;;3.95;52.26
48848;BME280;36611;51.638;5.784;2022-12-18T14:34:47;102199.41;;;3.96;52.39
48848;BME280;36611;51.638;5.784;2022-12-18T14:37:16;102207.38;;;3.96;52.37
48848;BME280;36611;51.638;5.784;2022-12-18T14:40:13;102201.22;;;3.94;52.26
48848;BME280;36611;51.638;5.784;2022-12-18T14:42:39;102198.53;;;3.95;52.56
48848;BME280;36611;51.638;5.784;2022-12-18T14:45:38;102195.91;;;3.94;52.29
48848;BME280;36611;51.638;5.784;2022-12-18T14:48:15;102195.00;;;3.95;52.32
48848;BME280;36611;51.638;5.784;2022-12-18T14:51:00;102198.56;;;3.94;52.24
48848;BME280;36611;51.638;5.784;2022-12-18T14:56:01;102180.88;;;3.93;52.04
48848;BME280;36611;51.638;5.784;2022-12-18T14:58:28;102176.47;;;3.92;52.14
48848;BME280;36611;51.638;5.784;2022-12-18T15:00:55;102180.03;;;3.91;51.97
48848;BME280;36611;51.638;5.784;2022-12-18T15:03:22;102181.81;;;3.90;52.06